Salem, OR (97301)

1:00 AM PST on December 06, 2016 (GMT -0800)
ASOS_HFM | | Change Station

Elev 200 ft 44.92 °N, 123.00 °W | Updated 30 minutes ago

Overcast
Overcast
36 °F
Feels Like 36 °F
N
0
Wind Variable Wind from North
Gusts 0.0 mph

Today
High -- | Low -- °F
--% Chance of Precip.
Yesterday
High -- | Low -- °F
Precip. -- in
Pressure 30.00 in
Visibility 10.0 miles
Clouds Overcast 800 ft
Windchill 36 °F
Dew Point 34 °F
Humidity 93%
Rainfall in
Snow Depth Not available.
7:35 AM 4:30 PM
Waxing Crescent, 40% visible
METAR KSLE 060856Z AUTO 17004KT 10SM OVC008 02/01 A3000 RMK AO2 SLP159 60000 T00220006 58006
Pressure 30.00 in
Visibility 10.0 miles
Clouds Overcast 800 ft
Windchill 36 °F
Dew Point 34 °F
Humidity 93%
Rainfall in
Snow Depth Not available.
7:35 AM 4:30 PM
Waxing Crescent, 40% visible
METAR KSLE 060856Z AUTO 17004KT 10SM OVC008 02/01 A3000 RMK AO2 SLP159 60000 T00220006 58006

10-Day Weather Forecast

Almanac

Astronomy

Dec. 06, 2016 Rise Set
Actual Time
Civil Twilight
Nautical Twilight
Astronomical Twilight
Moon
Length of Visible Light
Length of Day
Tomorrow will be .
, % of the Moon is Illuminated

Today's Extremes

State Highs State Lows

Community

WunderPhotos

Upload Photos

1,955,935 photos uploaded!

WunderBlog® & News

Nearby

Air Quality

  Air Quality AQ Index Pollutant
Not available.

Snow Depth

Station Depth Elevation

Earthquake Activity

City Distance Mag. Time & Date
Minimum magnitude displayed is 2.5.

Coastal Water Temperatures

Place Temperature

Stations

Nearby Weather Stations

Station Location Temp. Windchill Dew Point Humidity Wind Precip. Elev Updated Type
                   

Watches & Warnings

Winter Weather Advisory
Issued: 9:01 PM PST Dec. 5, 2016 – National Weather Service

... Winter Weather Advisory now in effect until 3 am PST Tuesday
above 700 feet for the central Willamette Valley and the Portland
and Vancouver Metro area...

The Winter Weather Advisory for snow is now in effect until 3 am
PST Tuesday for elevations above 700 feet.

* Timing... snow showers at times through late tonight.

* Accumulation... 1 to 2 inches above 700 feet. Any
accumulations below 700 feet will be light but a brief
dusting could coat surfaces overnight.

* Impacts... travel may become difficult as roads become snow
covered.

Precautionary/preparedness actions...

A Winter Weather Advisory for snow means that periods of snow
will cause primarily travel difficulties. Be prepared for snow
covered roads and limited visibilities... and use caution while
driving.